Flight Track Log - Related Links

Times and Time Zones

All times are in EDT time to prevent confusion due to time zone crossing. See the USC105 flight status page for this flight to view local times or setup timezone preferences in your user account.

Time Position Orientation Groundspeed Altitude Reporting Facility
EDT Latitude Longitude Course Direction KTS MPH feet Rate Location/Type
Fri 05:53:57 AM 41.9000 -88.2667 160° South 113 130 1,700  Level Chicago TRACON
Fri 05:54:57 AM 41.8667 -88.2500 160° South 111 128 2,900 1,150 Climbing Chicago TRACON
Fri 05:55:57 AM 41.8333 -88.2333 160° South 115 132 4,000 1,063 Climbing Chicago TRACON
Fri 05:56:16 AM 41.8325 -88.2386 258° West 112 129 4,300 1,050 Climbing Chicago Center
Fri 05:57:17 AM 41.8306 -88.1839 93° East 142 163 5,400 1,091 Climbing Chicago Center
Fri 05:58:17 AM 41.8364 -88.1267 82° East 153 176 6,500 793 Climbing Chicago Center
Fri 05:59:18 AM 41.8450 -88.0631 80° East 165 190 7,000 198 Climbing Chicago Center
Fri 06:00:18 AM 41.8533 -87.9783 82° East 214 246 6,900 -50 Descending Chicago Center
Fri 06:01:19 AM 41.8633 -87.8939 81° East 228 262 6,900  Level Chicago Center
Fri 06:01:58 AM 41.8667 -87.8167 87° East 233 268 6,900  Level Chicago TRACON
Fri 06:02:58 AM 41.8833 -87.7333 75° East 230 265 6,900  Level Chicago TRACON
Fri 06:03:58 AM 41.8833 -87.6500 90° East 234 269 6,900  Level Chicago TRACON
Fri 06:04:58 AM 41.9000 -87.5667 75° East 235 270 6,900  Level Chicago TRACON
Fri 06:05:58 AM 41.9000 -87.4833 90° East 237 273 6,900  Level Chicago TRACON
Fri 06:06:58 AM 41.9167 -87.4000 75° East 236 272 6,900  Level Chicago TRACON
Fri 06:08:22 AM 41.9281 -87.2731 83° East 233 268 6,900  Level Chicago Center
Fri 06:09:22 AM 41.9364 -87.1869 83° East 233 268 6,900  Level Chicago Center
Fri 06:10:22 AM 41.9442 -87.1003 83° East 234 269 6,900  Level Chicago Center
Fri 06:11:23 AM 41.9519 -87.0147 83° East 232 267 6,900  Level Chicago Center
Fri 06:12:23 AM 41.9614 -86.9292 82° East 233 268 6,900  Level Chicago Center
Fri 06:13:24 AM 41.9692 -86.8428 83° East 233 268 6,900  Level Chicago Center
Fri 06:14:24 AM 41.9767 -86.7581 83° East 230 265 6,900  Level Chicago Center
Fri 06:15:24 AM 41.9856 -86.6808 81° East 228 262 6,900  Level Chicago Center
Fri 06:16:25 AM 41.9933 -86.5961 83° East 229 264 6,900  Level Chicago Center
Fri 06:17:25 AM 42.0011 -86.5114 83° East 230 265 6,900  Level Chicago Center
Fri 06:18:26 AM 42.0083 -86.4275 83° East 228 262 6,900  Level Chicago Center
Fri 06:19:26 AM 42.0161 -86.3436 83° East 227 261 6,900  Level Chicago Center
Fri 06:20:27 AM 42.0239 -86.2600 83° East 226 260 6,900  Level Chicago Center
Fri 06:21:27 AM 42.0319 -86.1758 83° East 228 262 6,900  Level Chicago Center
Fri 06:22:28 AM 42.0392 -86.0936 83° East 225 259 6,900  Level Chicago Center
Fri 06:23:28 AM 42.0461 -86.0092 84° East 226 260 6,900  Level Chicago Center
Fri 06:24:29 AM 42.0536 -85.9281 83° East 221 254 6,900  Level Chicago Center
Fri 06:25:29 AM 42.0617 -85.8447 83° East 223 257 6,900  Level Chicago Center
Fri 06:26:29 AM 42.0681 -85.7619 84° East 223 257 6,900  Level Chicago Center
Fri 06:27:30 AM 42.0761 -85.6803 82° East 221 254 6,900  Level Chicago Center
Fri 06:28:30 AM 42.0825 -85.5969 84° East 222 255 6,900  Level Chicago Center
Fri 06:29:31 AM 42.0897 -85.5133 83° East 223 257 6,900  Level Chicago Center
Fri 06:30:31 AM 42.0975 -85.4297 83° East 225 259 6,900  Level Chicago Center
Fri 06:31:32 AM 42.1031 -85.3464 85° East 224 258 6,900  Level Chicago Center
Fri 06:32:32 AM 42.1122 -85.2464 83° East 223 257 6,900  Level Chicago Center
Fri 06:33:33 AM 42.1186 -85.1625 84° East 225 259 6,900  Level Chicago Center
Fri 06:34:33 AM 42.1258 -85.0775 83° East 226 260 6,900  Level Chicago Center
Fri 06:35:34 AM 42.1328 -84.9942 84° East 226 260 6,900  Level Chicago Center
Fri 06:36:34 AM 42.1394 -84.9144 84° East 218 251 6,900 50 Level Chicago Center
Fri 06:37:35 AM 42.1458 -84.8392 83° East 208 239 7,000 -198 Climbing Chicago Center
Fri 06:38:35 AM 42.1506 -84.7642 85° East 202 232 6,500 -645 Descending Chicago Center
Fri 06:39:36 AM 42.1578 -84.6797 83° East 219 252 5,700 -744 Descending Chicago Center
Fri 06:40:36 AM 42.1633 -84.5886 85° East 237 273 5,000 -615 Descending Chicago Center
Fri 06:40:54 AM 42.1661 -84.5614 82° East 239 275 4,900  Descending FAA TRACON SMA TRACON (SMA)
Fri 06:41:13 AM 42.1686 -84.5347 83° East 236 272 5,000 150 Climbing FAA TRACON SMA TRACON (SMA)
Fri 06:41:34 AM 42.1708 -84.5025 85° East 227 261 5,000 -150 Level FAA TRACON SMA TRACON (SMA)
Fri 06:41:53 AM 42.1731 -84.4767 83° East 219 252 4,900  Descending FAA TRACON SMA TRACON (SMA)
Fri 06:42:14 AM 42.1747 -84.4519 85° East 217 250 5,000  Climbing FAA TRACON SMA TRACON (SMA)
Fri 06:42:34 AM 42.1767 -84.4225 85° East 214 246 4,900  Descending FAA TRACON SMA TRACON (SMA)
Fri 06:42:53 AM 42.1783 -84.3986 85° East 211 243 5,000 150 Climbing FAA TRACON SMA TRACON (SMA)
Fri 06:43:14 AM 42.1800 -84.3747 85° East 210 242 5,000  Level FAA TRACON SMA TRACON (SMA)
Fri 06:43:33 AM 42.1828 -84.3453 83° East 206 237 5,000  Level FAA TRACON SMA TRACON (SMA)
Fri 06:43:54 AM 42.1836 -84.3214 87° East 207 238 5,000 -146 Level FAA TRACON SMA TRACON (SMA)
Fri 06:44:14 AM 42.1856 -84.2981 84° East 204 235 4,900  Descending FAA TRACON SMA TRACON (SMA)
Fri 06:44:30 AM 42.1861 -84.2769 88° East 204 235 5,000 79 Climbing Cleveland Center
Fri 06:45:30 AM 42.1928 -84.2017 83° East 201 231 5,000  Level Cleveland Center
Fri 06:46:31 AM 42.1969 -84.1289 86° East 196 226 5,000 -545 Level Cleveland Center
Fri 06:47:31 AM 42.2036 -84.0481 84° East 225 259 3,900 -893 Descending Cleveland Center
Fri 06:48:32 AM 42.2167 -83.9617 78° East 230 265 3,200 -492 Descending Cleveland Center
Fri 06:49:33 AM 42.2253 -83.8836 82° East 203 234 2,900 -149 Descending Cleveland Center
Fri 06:50:33 AM 42.2333 -83.8139 81° East 189 217 2,900  Level Cleveland Center
Fri 06:51:34 AM 42.2500 -83.7475 71° East 177 204 2,900  Level Cleveland Center
Fri 06:52:35 AM 42.2619 -83.6864 75° East 174 200 2,900  Level Cleveland Center
Fri 06:53:35 AM 42.2822 -83.6283 65° Northeast 163 188 2,900 76 Level Cleveland Center
Fri 06:53:54 AM 42.2933 -83.6136 44° Northeast 160 184 3,000  Climbing FAA TRACON SMA TRACON (SMA)
Fri 06:54:14 AM 42.3011 -83.5983 55° Northeast 160 184 2,900 -462 Descending FAA TRACON SMA TRACON (SMA)
Fri 06:54:33 AM 42.3089 -83.5819 57° Northeast 171 197 2,700 -450 Descending FAA TRACON SMA TRACON (SMA)
Fri 06:54:54 AM 42.3189 -83.5608 57° Northeast 172 198 2,600 -296 Descending FAA TRACON SMA TRACON (SMA)
Fri 06:55:54 AM 42.3442 -83.5058 58° Northeast 171 197 2,300 -225 Descending FAA TRACON SMA TRACON (SMA)
Fri 06:56:14 AM 42.3517 -83.4897 58° Northeast 158 182 2,300  Level FAA TRACON SMA TRACON (SMA)
Fri 06:56:34 AM 42.3603 -83.4692 60° Northeast 162 186 2,300  Level FAA TRACON SMA TRACON (SMA)
Fri 06:56:53 AM 42.3675 -83.4533 58° Northeast 162 186 2,300  Level FAA TRACON SMA TRACON (SMA)
Fri 06:57:14 AM 42.3639 -83.4361 106° East 151 174 2,300  Level FAA TRACON SMA TRACON (SMA)
Fri 06:57:34 AM 42.3536 -83.4236 138° Southeast 143 165 2,300  Level FAA TRACON SMA TRACON (SMA)
Fri 06:57:54 AM 42.3431 -83.4156 151° Southeast 130 150 2,300  Level FAA TRACON SMA TRACON (SMA)
Fri 06:58:14 AM 42.3333 -83.4178 190° South 113 130 2,300  Level FAA TRACON SMA TRACON (SMA)
Fri 06:58:33 AM 42.3231 -83.4186 183° South 120 138 2,300  Level FAA TRACON SMA TRACON (SMA)
Fri 06:58:54 AM 42.3125 -83.4256 206° Southwest 102 117 2,300 146 Level FAA TRACON SMA TRACON (SMA)
Fri 06:59:14 AM 42.3058 -83.4347 225° Southwest 107 123 2,400 -150 Climbing FAA TRACON SMA TRACON (SMA)
Fri 06:59:34 AM 42.2972 -83.4467 226° Southwest 123 142 2,200 -600 Descending FAA TRACON SMA TRACON (SMA)
Fri 06:59:54 AM 42.2900 -83.4550 220° Southwest 112 129 2,000 -550 Descending FAA TRACON SMA TRACON (SMA)
Fri 07:01:34 AM 42.2533 -83.5017 223° Southwest 97 112 1,100 -555 Descending FAA TRACON SMA TRACON (SMA)
Fri 07:01:53 AM 42.2458 -83.5089 215° Southwest 95 109 900 -300 Descending FAA TRACON SMA TRACON (SMA)
Fri 07:02:14 AM 42.2458 -83.5089 14° North 95 109 900  Level FAA TRACON SMA TRACON (SMA)
Fri 07:02:34 AM 42.2458 -83.5089 14° North 95 109 900  Level FAA TRACON SMA TRACON (SMA)

Login

Don't have an account? Register now (free) for customized features, flight alerts, and more!